sensor_id;sensor_type;location;lat;lon;timestamp;temperature;humidity
13405;DHT22;6773;51.192;7.024;2023-02-01T00:01:54;5.30;99.90
13405;DHT22;6773;51.192;7.024;2023-02-01T00:04:20;5.30;99.90
13405;DHT22;6773;51.192;7.024;2023-02-01T00:06:45;5.30;99.90
13405;DHT22;6773;51.192;7.024;2023-02-01T00:09:11;5.30;99.90
13405;DHT22;6773;51.192;7.024;2023-02-01T00:14:03;5.30;99.90
13405;DHT22;6773;51.192;7.024;2023-02-01T00:16:30;5.30;99.90
13405;DHT22;6773;51.192;7.024;2023-02-01T00:19:02;5.30;99.90
13405;DHT22;6773;51.192;7.024;2023-02-01T00:21:29;5.30;99.90
13405;DHT22;6773;51.192;7.024;2023-02-01T00:26:41;5.30;99.90
13405;DHT22;6773;51.192;7.024;2023-02-01T00:29:11;5.30;99.90
13405;DHT22;6773;51.192;7.024;2023-02-01T00:31:38;5.30;99.90
13405;DHT22;6773;51.192;7.024;2023-02-01T00:34:03;5.30;99.90
13405;DHT22;6773;51.192;7.024;2023-02-01T00:36:29;5.30;99.90
13405;DHT22;6773;51.192;7.024;2023-02-01T00:38:55;5.30;99.90
13405;DHT22;6773;51.192;7.024;2023-02-01T00:41:22;5.30;99.90
13405;DHT22;6773;51.192;7.024;2023-02-01T00:43:48;5.30;99.90
13405;DHT22;6773;51.192;7.024;2023-02-01T00:46:15;5.30;99.90
13405;DHT22;6773;51.192;7.024;2023-02-01T00:48:41;5.30;99.90
13405;DHT22;6773;51.192;7.024;2023-02-01T00:51:10;5.40;99.90
13405;DHT22;6773;51.192;7.024;2023-02-01T00:53:36;5.40;99.90
13405;DHT22;6773;51.192;7.024;2023-02-01T00:56:03;5.40;99.90
13405;DHT22;6773;51.192;7.024;2023-02-01T01:01:08;5.30;99.90
13405;DHT22;6773;51.192;7.024;2023-02-01T01:03:40;5.30;99.90
13405;DHT22;6773;51.192;7.024;2023-02-01T01:06:15;5.30;99.90
13405;DHT22;6773;51.192;7.024;2023-02-01T01:08:41;5.30;99.90
13405;DHT22;6773;51.192;7.024;2023-02-01T01:11:09;5.30;99.90
13405;DHT22;6773;51.192;7.024;2023-02-01T01:13:35;5.30;99.90
13405;DHT22;6773;51.192;7.024;2023-02-01T01:16:02;5.30;99.90
13405;DHT22;6773;51.192;7.024;2023-02-01T01:18:30;5.30;99.90
13405;DHT22;6773;51.192;7.024;2023-02-01T01:20:56;5.30;99.90
13405;DHT22;6773;51.192;7.024;2023-02-01T01:25:47;5.30;99.90
13405;DHT22;6773;51.192;7.024;2023-02-01T01:28:13;5.30;99.90
13405;DHT22;6773;51.192;7.024;2023-02-01T01:33:05;5.30;99.90
13405;DHT22;6773;51.192;7.024;2023-02-01T01:35:31;5.30;99.90
13405;DHT22;6773;51.192;7.024;2023-02-01T01:37:58;5.20;99.90
13405;DHT22;6773;51.192;7.024;2023-02-01T01:40:25;5.20;99.90
13405;DHT22;6773;51.192;7.024;2023-02-01T01:42:51;5.20;99.90
13405;DHT22;6773;51.192;7.024;2023-02-01T01:45:31;5.20;99.90
13405;DHT22;6773;51.192;7.024;2023-02-01T01:48:05;5.20;99.90
13405;DHT22;6773;51.192;7.024;2023-02-01T01:53:47;5.20;99.90
13405;DHT22;6773;51.192;7.024;2023-02-01T01:56:14;5.20;99.90
13405;DHT22;6773;51.192;7.024;2023-02-01T01:58:40;5.10;99.90
13405;DHT22;6773;51.192;7.024;2023-02-01T02:01:06;5.10;99.90
13405;DHT22;6773;51.192;7.024;2023-02-01T02:03:40;5.10;99.90
13405;DHT22;6773;51.192;7.024;2023-02-01T02:08:56;5.10;99.90
13405;DHT22;6773;51.192;7.024;2023-02-01T02:11:22;5.00;99.90
13405;DHT22;6773;51.192;7.024;2023-02-01T02:13:53;5.00;99.90
13405;DHT22;6773;51.192;7.024;2023-02-01T02:19:00;5.00;99.90
13405;DHT22;6773;51.192;7.024;2023-02-01T02:38:48;4.80;99.90
13405;DHT22;6773;51.192;7.024;2023-02-01T02:41:19;4.70;99.90
13405;DHT22;6773;51.192;7.024;2023-02-01T02:44:21;4.70;99.90
13405;DHT22;6773;51.192;7.024;2023-02-01T02:47:16;4.60;99.90
13405;DHT22;6773;51.192;7.024;2023-02-01T02:53:00;4.50;99.90
13405;DHT22;6773;51.192;7.024;2023-02-01T02:55:46;4.60;99.90
13405;DHT22;6773;51.192;7.024;2023-02-01T02:58:13;4.50;99.90
13405;DHT22;6773;51.192;7.024;2023-02-01T03:00:58;4.60;99.90
13405;DHT22;6773;51.192;7.024;2023-02-01T03:03:43;4.70;99.90
13405;DHT22;6773;51.192;7.024;2023-02-01T03:06:47;4.60;99.90
13405;DHT22;6773;51.192;7.024;2023-02-01T03:09:19;4.50;99.90
13405;DHT22;6773;51.192;7.024;2023-02-01T03:11:49;4.60;99.90
13405;DHT22;6773;51.192;7.024;2023-02-01T03:14:35;4.50;99.90
13405;DHT22;6773;51.192;7.024;2023-02-01T03:17:11;4.60;99.90
13405;DHT22;6773;51.192;7.024;2023-02-01T03:19:43;4.60;99.90
13405;DHT22;6773;51.192;7.024;2023-02-01T03:22:17;4.60;99.90
13405;DHT22;6773;51.192;7.024;2023-02-01T03:24:56;4.60;99.90
13405;DHT22;6773;51.192;7.024;2023-02-01T03:32:25;4.60;99.90
13405;DHT22;6773;51.192;7.024;2023-02-01T03:34:51;4.70;99.90
13405;DHT22;6773;51.192;7.024;2023-02-01T03:37:27;4.70;99.90
13405;DHT22;6773;51.192;7.024;2023-02-01T03:39:54;4.60;99.90
13405;DHT22;6773;51.192;7.024;2023-02-01T03:42:48;4.70;99.90
13405;DHT22;6773;51.192;7.024;2023-02-01T03:45:29;4.60;99.90
13405;DHT22;6773;51.192;7.024;2023-02-01T03:48:00;4.60;99.90
13405;DHT22;6773;51.192;7.024;2023-02-01T03:50:28;4.70;99.90
13405;DHT22;6773;51.192;7.024;2023-02-01T03:52:59;4.70;99.90
13405;DHT22;6773;51.192;7.024;2023-02-01T03:55:28;4.80;99.90
13405;DHT22;6773;51.192;7.024;2023-02-01T03:58:13;4.70;99.90
13405;DHT22;6773;51.192;7.024;2023-02-01T04:00:39;4.70;99.90
13405;DHT22;6773;51.192;7.024;2023-02-01T04:03:06;4.70;99.90
13405;DHT22;6773;51.192;7.024;2023-02-01T04:05:33;4.80;99.90
13405;DHT22;6773;51.192;7.024;2023-02-01T04:07:59;4.80;99.90
13405;DHT22;6773;51.192;7.024;2023-02-01T04:10:25;4.80;99.90
13405;DHT22;6773;51.192;7.024;2023-02-01T04:12:51;4.80;99.90
13405;DHT22;6773;51.192;7.024;2023-02-01T04:17:42;4.90;99.90
13405;DHT22;6773;51.192;7.024;2023-02-01T04:20:10;4.90;99.90
13405;DHT22;6773;51.192;7.024;2023-02-01T04:25:03;4.90;99.90
13405;DHT22;6773;51.192;7.024;2023-02-01T04:32:23;4.90;99.90
13405;DHT22;6773;51.192;7.024;2023-02-01T04:34:48;4.90;99.90
13405;DHT22;6773;51.192;7.024;2023-02-01T04:39:40;4.90;99.90
13405;DHT22;6773;51.192;7.024;2023-02-01T04:46:57;4.80;99.90
13405;DHT22;6773;51.192;7.024;2023-02-01T04:49:23;4.90;99.90
13405;DHT22;6773;51.192;7.024;2023-02-01T04:51:51;5.00;99.90
13405;DHT22;6773;51.192;7.024;2023-02-01T04:56:43;5.00;99.90
13405;DHT22;6773;51.192;7.024;2023-02-01T04:59:11;5.00;99.90
13405;DHT22;6773;51.192;7.024;2023-02-01T05:01:37;5.00;99.90
13405;DHT22;6773;51.192;7.024;2023-02-01T05:18:57;5.00;99.90
13405;DHT22;6773;51.192;7.024;2023-02-01T05:21:22;5.00;99.90
13405;DHT22;6773;51.192;7.024;2023-02-01T05:23:48;5.00;99.90
13405;DHT22;6773;51.192;7.024;2023-02-01T05:26:33;4.90;99.90
13405;DHT22;6773;51.192;7.024;2023-02-01T05:31:25;4.80;99.90
13405;DHT22;6773;51.192;7.024;2023-02-01T05:36:17;4.80;99.90
13405;DHT22;6773;51.192;7.024;2023-02-01T05:41:09;4.80;99.90
13405;DHT22;6773;51.192;7.024;2023-02-01T05:43:34;4.80;99.90
13405;DHT22;6773;51.192;7.024;2023-02-01T05:46:00;4.80;99.90
13405;DHT22;6773;51.192;7.024;2023-02-01T05:48:25;4.90;99.90
13405;DHT22;6773;51.192;7.024;2023-02-01T05:50:51;4.70;99.90
13405;DHT22;6773;51.192;7.024;2023-02-01T05:53:17;4.70;99.90
13405;DHT22;6773;51.192;7.024;2023-02-01T05:55:42;4.70;99.90
13405;DHT22;6773;51.192;7.024;2023-02-01T05:58:08;4.80;99.90
13405;DHT22;6773;51.192;7.024;2023-02-01T06:00:34;4.80;99.90
13405;DHT22;6773;51.192;7.024;2023-02-01T06:02:59;4.80;99.90
13405;DHT22;6773;51.192;7.024;2023-02-01T06:05:25;4.80;99.90
13405;DHT22;6773;51.192;7.024;2023-02-01T06:07:51;4.80;99.90
13405;DHT22;6773;51.192;7.024;2023-02-01T06:10:17;4.70;99.90
13405;DHT22;6773;51.192;7.024;2023-02-01T06:12:43;4.70;99.90
13405;DHT22;6773;51.192;7.024;2023-02-01T06:15:13;4.70;99.90
13405;DHT22;6773;51.192;7.024;2023-02-01T06:17:41;4.70;99.90
13405;DHT22;6773;51.192;7.024;2023-02-01T06:20:09;4.70;99.90
13405;DHT22;6773;51.192;7.024;2023-02-01T06:22:34;4.60;99.90
13405;DHT22;6773;51.192;7.024;2023-02-01T06:27:27;4.70;99.90
13405;DHT22;6773;51.192;7.024;2023-02-01T06:29:53;4.80;99.90
13405;DHT22;6773;51.192;7.024;2023-02-01T06:32:20;4.80;99.90
13405;DHT22;6773;51.192;7.024;2023-02-01T06:34:46;4.80;99.90
13405;DHT22;6773;51.192;7.024;2023-02-01T06:37:12;4.80;99.90
13405;DHT22;6773;51.192;7.024;2023-02-01T06:42:04;4.80;99.90
13405;DHT22;6773;51.192;7.024;2023-02-01T06:44:29;4.90;99.90
13405;DHT22;6773;51.192;7.024;2023-02-01T06:46:55;4.80;99.90
13405;DHT22;6773;51.192;7.024;2023-02-01T06:49:21;4.80;99.90
13405;DHT22;6773;51.192;7.024;2023-02-01T06:56:39;4.80;99.90
13405;DHT22;6773;51.192;7.024;2023-02-01T06:59:06;4.90;99.90
13405;DHT22;6773;51.192;7.024;2023-02-01T07:01:31;4.80;99.90
13405;DHT22;6773;51.192;7.024;2023-02-01T07:03:57;4.80;99.90
13405;DHT22;6773;51.192;7.024;2023-02-01T07:06:23;4.90;99.90
13405;DHT22;6773;51.192;7.024;2023-02-01T07:08:49;4.80;99.90
13405;DHT22;6773;51.192;7.024;2023-02-01T07:11:15;4.80;99.90
13405;DHT22;6773;51.192;7.024;2023-02-01T07:13:41;4.90;99.90
13405;DHT22;6773;51.192;7.024;2023-02-01T07:16:13;4.90;99.90
13405;DHT22;6773;51.192;7.024;2023-02-01T07:18:39;4.80;99.90
13405;DHT22;6773;51.192;7.024;2023-02-01T07:21:05;4.80;99.90
13405;DHT22;6773;51.192;7.024;2023-02-01T07:23:31;4.90;99.90
13405;DHT22;6773;51.192;7.024;2023-02-01T07:25:58;4.90;99.90
13405;DHT22;6773;51.192;7.024;2023-02-01T07:28:24;4.80;99.90
13405;DHT22;6773;51.192;7.024;2023-02-01T07:30:50;4.90;99.90
13405;DHT22;6773;51.192;7.024;2023-02-01T07:33:21;4.90;99.90
13405;DHT22;6773;51.192;7.024;2023-02-01T07:35:48;4.90;99.90
13405;DHT22;6773;51.192;7.024;2023-02-01T07:38:14;4.90;99.90
13405;DHT22;6773;51.192;7.024;2023-02-01T07:43:05;4.80;99.90
13405;DHT22;6773;51.192;7.024;2023-02-01T07:45:37;4.90;99.90
13405;DHT22;6773;51.192;7.024;2023-02-01T07:48:02;4.80;99.90
13405;DHT22;6773;51.192;7.024;2023-02-01T07:50:28;4.80;99.90
13405;DHT22;6773;51.192;7.024;2023-02-01T07:52:54;4.80;99.90
13405;DHT22;6773;51.192;7.024;2023-02-01T07:55:20;4.80;99.90
13405;DHT22;6773;51.192;7.024;2023-02-01T07:57:46;4.80;99.90
13405;DHT22;6773;51.192;7.024;2023-02-01T08:00:12;4.80;99.90
13405;DHT22;6773;51.192;7.024;2023-02-01T08:03:00;4.90;99.90
13405;DHT22;6773;51.192;7.024;2023-02-01T08:05:26;4.90;99.90
13405;DHT22;6773;51.192;7.024;2023-02-01T08:07:51;4.90;99.90
13405;DHT22;6773;51.192;7.024;2023-02-01T08:10:18;4.90;99.90
13405;DHT22;6773;51.192;7.024;2023-02-01T08:12:44;4.90;99.90
13405;DHT22;6773;51.192;7.024;2023-02-01T08:15:14;4.90;99.90
13405;DHT22;6773;51.192;7.024;2023-02-01T08:20:06;5.40;99.90
13405;DHT22;6773;51.192;7.024;2023-02-01T08:22:32;4.90;99.90
13405;DHT22;6773;51.192;7.024;2023-02-01T08:24:58;4.90;99.90
13405;DHT22;6773;51.192;7.024;2023-02-01T08:27:27;4.90;99.90
13405;DHT22;6773;51.192;7.024;2023-02-01T08:29:52;5.00;99.90
13405;DHT22;6773;51.192;7.024;2023-02-01T08:32:19;5.00;99.90
13405;DHT22;6773;51.192;7.024;2023-02-01T08:34:45;5.00;99.90
13405;DHT22;6773;51.192;7.024;2023-02-01T08:39:36;5.00;99.90
13405;DHT22;6773;51.192;7.024;2023-02-01T08:44:46;5.00;99.90
13405;DHT22;6773;51.192;7.024;2023-02-01T08:47:12;5.10;99.90
13405;DHT22;6773;51.192;7.024;2023-02-01T08:52:04;5.00;99.90
13405;DHT22;6773;51.192;7.024;2023-02-01T08:54:29;5.00;99.90
13405;DHT22;6773;51.192;7.024;2023-02-01T08:56:55;5.00;99.90
13405;DHT22;6773;51.192;7.024;2023-02-01T08:59:21;5.00;99.90
13405;DHT22;6773;51.192;7.024;2023-02-01T09:01:47;5.00;99.90
13405;DHT22;6773;51.192;7.024;2023-02-01T09:04:12;5.10;99.90
13405;DHT22;6773;51.192;7.024;2023-02-01T09:06:40;5.10;99.90
13405;DHT22;6773;51.192;7.024;2023-02-01T09:09:06;5.10;99.90
13405;DHT22;6773;51.192;7.024;2023-02-01T09:11:32;5.10;99.90
13405;DHT22;6773;51.192;7.024;2023-02-01T09:16:23;5.20;99.90
13405;DHT22;6773;51.192;7.024;2023-02-01T09:18:49;5.20;99.90
13405;DHT22;6773;51.192;7.024;2023-02-01T09:23:41;5.20;99.90
13405;DHT22;6773;51.192;7.024;2023-02-01T09:26:06;5.20;99.90
13405;DHT22;6773;51.192;7.024;2023-02-01T09:28:32;5.20;99.90
13405;DHT22;6773;51.192;7.024;2023-02-01T09:30:59;5.20;99.90
13405;DHT22;6773;51.192;7.024;2023-02-01T09:33:26;5.20;99.90
13405;DHT22;6773;51.192;7.024;2023-02-01T09:36:00;5.30;99.90
13405;DHT22;6773;51.192;7.024;2023-02-01T09:40:54;5.30;99.90
13405;DHT22;6773;51.192;7.024;2023-02-01T09:43:29;5.30;99.90
13405;DHT22;6773;51.192;7.024;2023-02-01T09:48:49;5.30;99.90
13405;DHT22;6773;51.192;7.024;2023-02-01T09:51:23;5.30;99.90
13405;DHT22;6773;51.192;7.024;2023-02-01T09:54:18;5.30;99.90
13405;DHT22;6773;51.192;7.024;2023-02-01T09:56:58;5.30;99.90
13405;DHT22;6773;51.192;7.024;2023-02-01T09:59:41;5.30;99.90
13405;DHT22;6773;51.192;7.024;2023-02-01T10:02:24;5.20;99.90
13405;DHT22;6773;51.192;7.024;2023-02-01T10:04:54;5.20;99.90
13405;DHT22;6773;51.192;7.024;2023-02-01T10:07:36;5.20;99.90
13405;DHT22;6773;51.192;7.024;2023-02-01T10:16:13;5.10;99.90
13405;DHT22;6773;51.192;7.024;2023-02-01T10:19:07;5.10;99.90
13405;DHT22;6773;51.192;7.024;2023-02-01T10:24:47;5.00;99.90
13405;DHT22;6773;51.192;7.024;2023-02-01T10:27:21;5.10;99.90
13405;DHT22;6773;51.192;7.024;2023-02-01T10:30:01;5.10;99.90
13405;DHT22;6773;51.192;7.024;2023-02-01T10:32:33;5.10;99.90
13405;DHT22;6773;51.192;7.024;2023-02-01T10:35:13;5.10;99.90
13405;DHT22;6773;51.192;7.024;2023-02-01T10:37:41;5.10;99.90
13405;DHT22;6773;51.192;7.024;2023-02-01T10:40:17;5.20;99.90
13405;DHT22;6773;51.192;7.024;2023-02-01T10:42:45;5.10;99.90
13405;DHT22;6773;51.192;7.024;2023-02-01T10:45:15;5.20;99.90
13405;DHT22;6773;51.192;7.024;2023-02-01T10:47:43;5.10;99.90
13405;DHT22;6773;51.192;7.024;2023-02-01T10:50:34;5.20;99.90
13405;DHT22;6773;51.192;7.024;2023-02-01T10:53:17;5.20;99.90
13405;DHT22;6773;51.192;7.024;2023-02-01T10:55:49;5.20;99.90
13405;DHT22;6773;51.192;7.024;2023-02-01T10:58:27;5.20;99.90
13405;DHT22;6773;51.192;7.024;2023-02-01T11:01:02;5.30;99.90
13405;DHT22;6773;51.192;7.024;2023-02-01T11:03:40;5.30;99.90
13405;DHT22;6773;51.192;7.024;2023-02-01T11:06:19;5.40;99.90
13405;DHT22;6773;51.192;7.024;2023-02-01T11:08:55;5.40;99.90
13405;DHT22;6773;51.192;7.024;2023-02-01T11:11:22;5.40;99.90
13405;DHT22;6773;51.192;7.024;2023-02-01T11:13:53;5.50;99.90
13405;DHT22;6773;51.192;7.024;2023-02-01T11:16:18;5.50;99.90
13405;DHT22;6773;51.192;7.024;2023-02-01T11:18:44;5.50;99.90
13405;DHT22;6773;51.192;7.024;2023-02-01T11:21:11;5.60;99.90
13405;DHT22;6773;51.192;7.024;2023-02-01T11:23:43;5.60;99.90
13405;DHT22;6773;51.192;7.024;2023-02-01T11:26:24;5.60;99.90
13405;DHT22;6773;51.192;7.024;2023-02-01T11:28:58;5.60;99.90
13405;DHT22;6773;51.192;7.024;2023-02-01T11:31:26;6.30;99.90
13405;DHT22;6773;51.192;7.024;2023-02-01T11:33:55;5.60;99.90
13405;DHT22;6773;51.192;7.024;2023-02-01T11:36:29;5.60;99.90
13405;DHT22;6773;51.192;7.024;2023-02-01T11:39:23;5.70;99.90
13405;DHT22;6773;51.192;7.024;2023-02-01T11:42:02;5.70;99.90
13405;DHT22;6773;51.192;7.024;2023-02-01T11:44:37;5.70;99.90
13405;DHT22;6773;51.192;7.024;2023-02-01T11:49:48;5.70;99.90
13405;DHT22;6773;51.192;7.024;2023-02-01T11:52:22;5.80;99.90
13405;DHT22;6773;51.192;7.024;2023-02-01T11:54:56;5.80;99.90
13405;DHT22;6773;51.192;7.024;2023-02-01T12:05:53;5.90;99.90
13405;DHT22;6773;51.192;7.024;2023-02-01T12:14:23;5.90;99.90
13405;DHT22;6773;51.192;7.024;2023-02-01T12:39:32;6.40;99.90
13405;DHT22;6773;51.192;7.024;2023-02-01T12:45:00;6.40;99.90
13405;DHT22;6773;51.192;7.024;2023-02-01T12:47:57;6.40;99.90
13405;DHT22;6773;51.192;7.024;2023-02-01T12:50:32;6.40;99.90
13405;DHT22;6773;51.192;7.024;2023-02-01T12:53:30;6.30;99.90
13405;DHT22;6773;51.192;7.024;2023-02-01T12:56:03;6.40;99.90
13405;DHT22;6773;51.192;7.024;2023-02-01T12:58:39;6.40;99.90
13405;DHT22;6773;51.192;7.024;2023-02-01T13:01:21;6.40;99.90
13405;DHT22;6773;51.192;7.024;2023-02-01T13:12:38;6.40;99.90
13405;DHT22;6773;51.192;7.024;2023-02-01T13:17:47;6.40;99.90
13405;DHT22;6773;51.192;7.024;2023-02-01T13:20:31;6.40;99.90
13405;DHT22;6773;51.192;7.024;2023-02-01T13:23:05;6.40;99.90
13405;DHT22;6773;51.192;7.024;2023-02-01T13:25:48;6.40;99.90
13405;DHT22;6773;51.192;7.024;2023-02-01T13:28:29;6.50;99.90
13405;DHT22;6773;51.192;7.024;2023-02-01T13:37:14;6.50;99.90
13405;DHT22;6773;51.192;7.024;2023-02-01T13:42:34;6.60;99.90
13405;DHT22;6773;51.192;7.024;2023-02-01T13:45:12;6.50;99.90
13405;DHT22;6773;51.192;7.024;2023-02-01T13:47:41;6.50;99.90
13405;DHT22;6773;51.192;7.024;2023-02-01T13:52:54;6.50;99.90
13405;DHT22;6773;51.192;7.024;2023-02-01T13:57:47;6.40;99.90
13405;DHT22;6773;51.192;7.024;2023-02-01T14:00:37;6.40;99.90
13405;DHT22;6773;51.192;7.024;2023-02-01T14:03:08;6.40;99.90
13405;DHT22;6773;51.192;7.024;2023-02-01T14:10:55;6.40;99.90
13405;DHT22;6773;51.192;7.024;2023-02-01T14:13:35;6.60;99.90
13405;DHT22;6773;51.192;7.024;2023-02-01T14:21:32;6.70;99.90
13405;DHT22;6773;51.192;7.024;2023-02-01T14:24:13;6.70;99.90
13405;DHT22;6773;51.192;7.024;2023-02-01T14:26:49;6.80;99.90
13405;DHT22;6773;51.192;7.024;2023-02-01T14:31:49;6.70;99.90
13405;DHT22;6773;51.192;7.024;2023-02-01T14:34:51;6.80;99.90
13405;DHT22;6773;51.192;7.024;2023-02-01T14:37:11;6.80;99.90
13405;DHT22;6773;51.192;7.024;2023-02-01T14:44:44;6.90;99.90
13405;DHT22;6773;51.192;7.024;2023-02-01T14:52:30;7.00;99.90
13405;DHT22;6773;51.192;7.024;2023-02-01T14:55:04;6.90;99.90
13405;DHT22;6773;51.192;7.024;2023-02-01T14:57:34;7.00;99.90
13405;DHT22;6773;51.192;7.024;2023-02-01T15:00:26;6.90;99.90
13405;DHT22;6773;51.192;7.024;2023-02-01T15:02:54;7.00;99.90
13405;DHT22;6773;51.192;7.024;2023-02-01T15:07:51;7.10;99.90
13405;DHT22;6773;51.192;7.024;2023-02-01T15:10:18;7.10;99.90
13405;DHT22;6773;51.192;7.024;2023-02-01T15:12:45;7.20;99.90
13405;DHT22;6773;51.192;7.024;2023-02-01T15:15:20;7.20;99.90
13405;DHT22;6773;51.192;7.024;2023-02-01T15:17:57;7.20;99.90
13405;DHT22;6773;51.192;7.024;2023-02-01T15:20:30;7.10;99.90
13405;DHT22;6773;51.192;7.024;2023-02-01T15:23:03;7.20;99.90
13405;DHT22;6773;51.192;7.024;2023-02-01T15:25:33;7.20;99.90
13405;DHT22;6773;51.192;7.024;2023-02-01T15:28:00;7.10;99.90
13405;DHT22;6773;51.192;7.024;2023-02-01T15:30:31;7.10;99.90
13405;DHT22;6773;51.192;7.024;2023-02-01T15:33:26;7.10;99.90
13405;DHT22;6773;51.192;7.024;2023-02-01T15:35:54;7.10;99.90
13405;DHT22;6773;51.192;7.024;2023-02-01T15:41:17;7.20;99.90
13405;DHT22;6773;51.192;7.024;2023-02-01T15:44:04;7.20;99.90
13405;DHT22;6773;51.192;7.024;2023-02-01T15:46:39;7.20;99.90
13405;DHT22;6773;51.192;7.024;2023-02-01T15:51:45;7.20;99.90
13405;DHT22;6773;51.192;7.024;2023-02-01T15:54:20;7.10;99.90
13405;DHT22;6773;51.192;7.024;2023-02-01T15:56:51;7.10;99.90
13405;DHT22;6773;51.192;7.024;2023-02-01T15:59:20;7.10;99.90
13405;DHT22;6773;51.192;7.024;2023-02-01T16:01:47;7.10;99.90
13405;DHT22;6773;51.192;7.024;2023-02-01T16:04:24;7.10;99.90
13405;DHT22;6773;51.192;7.024;2023-02-01T16:06:53;7.10;99.90
13405;DHT22;6773;51.192;7.024;2023-02-01T16:09:24;7.10;99.90
13405;DHT22;6773;51.192;7.024;2023-02-01T16:12:00;7.00;99.90
13405;DHT22;6773;51.192;7.024;2023-02-01T16:14:26;7.00;99.90
13405;DHT22;6773;51.192;7.024;2023-02-01T16:16:55;7.00;99.90
13405;DHT22;6773;51.192;7.024;2023-02-01T16:21:49;7.10;99.90
13405;DHT22;6773;51.192;7.024;2023-02-01T16:24:15;7.00;99.90
13405;DHT22;6773;51.192;7.024;2023-02-01T16:26:40;7.00;99.90
13405;DHT22;6773;51.192;7.024;2023-02-01T16:31:36;7.10;99.90
13405;DHT22;6773;51.192;7.024;2023-02-01T16:34:02;7.00;99.90
13405;DHT22;6773;51.192;7.024;2023-02-01T16:36:28;7.00;99.90
13405;DHT22;6773;51.192;7.024;2023-02-01T16:38:54;7.00;99.90
13405;DHT22;6773;51.192;7.024;2023-02-01T16:41:22;6.90;99.90
13405;DHT22;6773;51.192;7.024;2023-02-01T16:43:53;6.90;99.90
13405;DHT22;6773;51.192;7.024;2023-02-01T16:46:21;6.90;99.90
13405;DHT22;6773;51.192;7.024;2023-02-01T16:49:01;6.90;99.90
13405;DHT22;6773;51.192;7.024;2023-02-01T16:51:31;6.80;99.90
13405;DHT22;6773;51.192;7.024;2023-02-01T16:53:58;6.90;99.90
13405;DHT22;6773;51.192;7.024;2023-02-01T16:56:32;6.90;99.90
13405;DHT22;6773;51.192;7.024;2023-02-01T17:01:25;7.00;99.90
13405;DHT22;6773;51.192;7.024;2023-02-01T17:03:51;7.00;99.90
13405;DHT22;6773;51.192;7.024;2023-02-01T17:06:20;7.00;99.90
13405;DHT22;6773;51.192;7.024;2023-02-01T17:08:55;7.00;99.90
13405;DHT22;6773;51.192;7.024;2023-02-01T17:13:50;7.00;99.90
13405;DHT22;6773;51.192;7.024;2023-02-01T17:16:22;7.00;99.90
13405;DHT22;6773;51.192;7.024;2023-02-01T17:19:05;7.00;99.90
13405;DHT22;6773;51.192;7.024;2023-02-01T17:21:49;6.90;99.90
13405;DHT22;6773;51.192;7.024;2023-02-01T17:24:18;6.90;99.90
13405;DHT22;6773;51.192;7.024;2023-02-01T17:26:44;7.00;99.90
13405;DHT22;6773;51.192;7.024;2023-02-01T17:29:11;7.00;99.90
13405;DHT22;6773;51.192;7.024;2023-02-01T17:31:40;6.90;99.90
13405;DHT22;6773;51.192;7.024;2023-02-01T17:36:32;7.00;99.90
13405;DHT22;6773;51.192;7.024;2023-02-01T17:41:26;7.00;99.90
13405;DHT22;6773;51.192;7.024;2023-02-01T17:43:52;7.00;99.90
13405;DHT22;6773;51.192;7.024;2023-02-01T17:48:51;7.00;99.90
13405;DHT22;6773;51.192;7.024;2023-02-01T17:51:19;7.00;99.90
13405;DHT22;6773;51.192;7.024;2023-02-01T17:53:45;7.00;99.90
13405;DHT22;6773;51.192;7.024;2023-02-01T17:56:16;7.00;99.90
13405;DHT22;6773;51.192;7.024;2023-02-01T17:58:43;7.00;99.90
13405;DHT22;6773;51.192;7.024;2023-02-01T18:01:15;7.00;99.90
13405;DHT22;6773;51.192;7.024;2023-02-01T18:06:13;7.10;99.90
13405;DHT22;6773;51.192;7.024;2023-02-01T18:11:17;7.10;99.90
13405;DHT22;6773;51.192;7.024;2023-02-01T18:13:43;7.10;99.90
13405;DHT22;6773;51.192;7.024;2023-02-01T18:16:32;7.10;99.90
13405;DHT22;6773;51.192;7.024;2023-02-01T18:18:58;7.00;99.90
13405;DHT22;6773;51.192;7.024;2023-02-01T18:21:35;7.10;99.90
13405;DHT22;6773;51.192;7.024;2023-02-01T18:24:01;7.10;99.90
13405;DHT22;6773;51.192;7.024;2023-02-01T18:26:27;7.10;99.90
13405;DHT22;6773;51.192;7.024;2023-02-01T18:28:53;7.10;99.90
13405;DHT22;6773;51.192;7.024;2023-02-01T18:31:28;7.10;99.90
13405;DHT22;6773;51.192;7.024;2023-02-01T18:33:56;7.10;99.90
13405;DHT22;6773;51.192;7.024;2023-02-01T18:36:22;7.10;99.90
13405;DHT22;6773;51.192;7.024;2023-02-01T18:38:48;7.00;99.90
13405;DHT22;6773;51.192;7.024;2023-02-01T18:41:16;7.00;99.90
13405;DHT22;6773;51.192;7.024;2023-02-01T18:43:42;7.00;99.90
13405;DHT22;6773;51.192;7.024;2023-02-01T18:46:11;7.00;99.90
13405;DHT22;6773;51.192;7.024;2023-02-01T18:48:37;6.90;99.90
13405;DHT22;6773;51.192;7.024;2023-02-01T18:51:03;7.00;99.90
13405;DHT22;6773;51.192;7.024;2023-02-01T18:53:29;6.90;99.90
13405;DHT22;6773;51.192;7.024;2023-02-01T18:55:56;7.00;99.90
13405;DHT22;6773;51.192;7.024;2023-02-01T18:58:22;7.00;99.90
13405;DHT22;6773;51.192;7.024;2023-02-01T19:00:52;7.00;99.90
13405;DHT22;6773;51.192;7.024;2023-02-01T19:03:19;7.00;99.90
13405;DHT22;6773;51.192;7.024;2023-02-01T19:05:46;7.00;99.90
13405;DHT22;6773;51.192;7.024;2023-02-01T19:08:12;6.90;99.90
13405;DHT22;6773;51.192;7.024;2023-02-01T19:10:40;6.90;99.90
13405;DHT22;6773;51.192;7.024;2023-02-01T19:13:10;7.00;99.90
13405;DHT22;6773;51.192;7.024;2023-02-01T19:18:05;7.00;99.90
13405;DHT22;6773;51.192;7.024;2023-02-01T19:20:31;7.00;99.90
13405;DHT22;6773;51.192;7.024;2023-02-01T19:22:57;7.00;99.90
13405;DHT22;6773;51.192;7.024;2023-02-01T19:25:25;6.90;99.90
13405;DHT22;6773;51.192;7.024;2023-02-01T19:27:52;6.90;99.90
13405;DHT22;6773;51.192;7.024;2023-02-01T19:30:19;6.90;99.90
13405;DHT22;6773;51.192;7.024;2023-02-01T19:35:14;6.90;99.90
13405;DHT22;6773;51.192;7.024;2023-02-01T19:37:42;7.00;99.90
13405;DHT22;6773;51.192;7.024;2023-02-01T19:40:09;6.90;99.90
13405;DHT22;6773;51.192;7.024;2023-02-01T19:42:36;6.90;99.90
13405;DHT22;6773;51.192;7.024;2023-02-01T19:45:02;6.80;99.90
13405;DHT22;6773;51.192;7.024;2023-02-01T19:47:28;6.90;99.90
13405;DHT22;6773;51.192;7.024;2023-02-01T19:49:54;6.90;99.90
13405;DHT22;6773;51.192;7.024;2023-02-01T19:54:45;6.90;99.90
13405;DHT22;6773;51.192;7.024;2023-02-01T19:57:11;6.90;99.90
13405;DHT22;6773;51.192;7.024;2023-02-01T20:02:02;6.90;99.90
13405;DHT22;6773;51.192;7.024;2023-02-01T20:04:28;6.90;99.90
13405;DHT22;6773;51.192;7.024;2023-02-01T20:09:26;6.80;99.90
13405;DHT22;6773;51.192;7.024;2023-02-01T20:11:53;6.90;99.90
13405;DHT22;6773;51.192;7.024;2023-02-01T20:14:23;6.90;99.90
13405;DHT22;6773;51.192;7.024;2023-02-01T20:16:49;6.90;99.90
13405;DHT22;6773;51.192;7.024;2023-02-01T20:19:15;6.80;99.90
13405;DHT22;6773;51.192;7.024;2023-02-01T20:21:41;6.90;99.90
13405;DHT22;6773;51.192;7.024;2023-02-01T20:24:09;6.90;99.90
13405;DHT22;6773;51.192;7.024;2023-02-01T20:26:35;6.90;99.90
13405;DHT22;6773;51.192;7.024;2023-02-01T20:29:01;6.90;99.90
13405;DHT22;6773;51.192;7.024;2023-02-01T20:33:55;6.90;99.90
13405;DHT22;6773;51.192;7.024;2023-02-01T20:38:49;6.90;99.90
13405;DHT22;6773;51.192;7.024;2023-02-01T20:41:15;6.90;99.90
13405;DHT22;6773;51.192;7.024;2023-02-01T20:43:40;6.90;99.90
13405;DHT22;6773;51.192;7.024;2023-02-01T20:48:34;7.00;99.90
13405;DHT22;6773;51.192;7.024;2023-02-01T20:51:00;7.00;99.90
13405;DHT22;6773;51.192;7.024;2023-02-01T20:53:26;6.90;99.90